createdAt,value
2019-05-11T00:00:00.194Z,81.28
2019-05-11T00:02:29.026Z,81.30
2019-05-11T00:04:57.868Z,81.32
2019-05-11T00:07:26.673Z,81.73
2019-05-11T00:09:58.013Z,81.83
2019-05-11T00:12:26.138Z,82.19
2019-05-11T00:14:54.924Z,82.43
2019-05-11T00:17:24.331Z,82.93
2019-05-11T00:19:53.225Z,82.57
2019-05-11T00:22:22.031Z,82.36
2019-05-11T00:24:50.829Z,82.31
2019-05-11T00:27:19.705Z,82.20
2019-05-11T00:29:48.510Z,82.57
2019-05-11T00:32:17.384Z,82.57
2019-05-11T00:34:46.353Z,82.41
2019-05-11T00:37:15.204Z,82.16
2019-05-11T00:39:44.013Z,81.65
2019-05-11T00:42:12.996Z,81.51
2019-05-11T00:44:41.811Z,81.52
2019-05-11T00:47:10.612Z,81.84
2019-05-11T00:49:39.588Z,81.87
2019-05-11T00:52:08.389Z,81.92
2019-05-11T00:54:37.198Z,82.67
2019-05-11T00:57:06.250Z,83.13
2019-05-11T00:59:35.048Z,83.47
2019-05-11T01:02:03.843Z,83.94
2019-05-11T01:04:32.782Z,84.91
2019-05-11T01:07:01.626Z,85.64
2019-05-11T01:09:32.012Z,86.11
2019-05-11T01:12:00.939Z,86.83
2019-05-11T01:14:29.744Z,87.09
2019-05-11T01:16:58.739Z,87.24
2019-05-11T01:19:27.623Z,87.19
2019-05-11T01:21:56.421Z,87.35
2019-05-11T01:24:25.219Z,87.83
2019-05-11T01:26:54.078Z,88.07
2019-05-11T01:29:22.871Z,88.50
2019-05-11T01:31:51.676Z,88.84
2019-05-11T01:34:20.644Z,89.07
2019-05-11T01:36:49.448Z,88.94
2019-05-11T01:39:18.571Z,88.94
2019-05-11T01:41:47.536Z,89.27
2019-05-11T01:44:16.347Z,89.65
2019-05-11T01:46:45.282Z,89.83
2019-05-11T01:49:14.152Z,90.05
2019-05-11T01:51:42.956Z,90.78
2019-05-11T01:54:11.763Z,91.46
2019-05-11T01:56:40.735Z,92.35
2019-05-11T01:59:09.540Z,92.96
2019-05-11T02:01:38.344Z,93.20
2019-05-11T02:04:07.394Z,93.32
2019-05-11T02:06:36.215Z,93.47
2019-05-11T02:09:07.492Z,93.87
2019-05-11T02:11:38.004Z,94.26
2019-05-11T02:14:07.034Z,94.48
2019-05-11T02:16:38.885Z,94.52
2019-05-11T02:19:08.344Z,94.46
2019-05-11T02:21:37.142Z,94.62
2019-05-11T02:24:05.940Z,94.64
2019-05-11T02:26:34.916Z,94.51
2019-05-11T02:29:03.865Z,94.35
2019-05-11T02:31:32.692Z,94.41
2019-05-11T02:34:01.713Z,94.40
2019-05-11T02:36:30.513Z,94.14
2019-05-11T02:39:03.839Z,93.73
2019-05-11T02:41:36.076Z,93.49
2019-05-11T02:44:00.886Z,93.61
2019-05-11T02:46:30.152Z,93.28
2019-05-11T02:49:00.712Z,93.13
2019-05-11T02:51:30.856Z,92.99
2019-05-11T02:54:02.836Z,93.19
2019-05-11T02:56:31.818Z,92.96
2019-05-11T02:59:00.714Z,92.71
2019-05-11T03:01:31.128Z,92.94
2019-05-11T03:04:00.139Z,93.29
2019-05-11T03:06:28.986Z,93.74
2019-05-11T03:08:58.322Z,94.24
2019-05-11T03:11:27.313Z,94.43
2019-05-11T03:13:56.094Z,94.50
2019-05-11T03:16:24.902Z,94.49
2019-05-11T03:18:53.879Z,94.18
2019-05-11T03:21:22.673Z,94.06
2019-05-11T03:23:51.475Z,94.17
2019-05-11T03:26:20.331Z,94.38
2019-05-11T03:28:49.133Z,94.52
2019-05-11T03:31:17.942Z,94.13
2019-05-11T03:33:47.010Z,94.08
2019-05-11T03:36:15.811Z,93.93
2019-05-11T03:38:44.624Z,93.91
2019-05-11T03:41:13.592Z,93.73
2019-05-11T03:43:43.954Z,93.78
2019-05-11T03:46:12.750Z,94.07
2019-05-11T03:48:41.590Z,94.22
2019-05-11T03:51:10.587Z,93.91
2019-05-11T03:53:39.386Z,93.37
2019-05-11T03:56:08.334Z,92.66
2019-05-11T03:58:37.142Z,91.84
2019-05-11T04:01:05.944Z,91.62
2019-05-11T04:03:34.889Z,91.42
2019-05-11T04:06:03.696Z,90.83
2019-05-11T04:08:32.489Z,90.59
2019-05-11T04:11:01.956Z,90.07
2019-05-11T04:13:30.684Z,89.33
2019-05-11T04:15:59.406Z,88.45
2019-05-11T04:18:28.301Z,87.94
2019-05-11T04:20:58.568Z,87.67
2019-05-11T04:23:27.307Z,87.51
2019-05-11T04:25:58.006Z,86.20
2019-05-11T04:28:26.725Z,85.88
2019-05-11T04:30:55.455Z,85.29
2019-05-11T04:33:24.233Z,84.64
2019-05-11T04:35:52.960Z,84.37
2019-05-11T04:38:21.688Z,83.09
2019-05-11T04:40:50.769Z,82.56
2019-05-11T04:43:19.493Z,81.94
2019-05-11T04:45:48.219Z,81.97
2019-05-11T04:48:17.099Z,81.71
2019-05-11T04:50:45.817Z,81.56
2019-05-11T04:53:14.655Z,81.47
2019-05-11T04:55:43.507Z,80.63
2019-05-11T04:58:12.225Z,80.54
2019-05-11T05:00:42.070Z,78.98
2019-05-11T05:03:10.915Z,76.60
2019-05-11T05:05:39.629Z,75.04
2019-05-11T05:08:09.928Z,73.83
2019-05-11T05:10:39.190Z,72.72
2019-05-11T05:13:10.466Z,71.09
2019-05-11T05:15:38.363Z,69.80
2019-05-11T05:18:07.267Z,69.06
2019-05-11T05:20:35.996Z,67.47
2019-05-11T05:23:04.718Z,66.90
2019-05-11T05:25:33.602Z,66.37
2019-05-11T05:28:02.323Z,65.54
2019-05-11T05:30:31.650Z,64.12
2019-05-11T05:33:00.497Z,63.34
2019-05-11T05:35:29.214Z,62.04
2019-05-11T05:37:57.937Z,60.80
2019-05-11T05:40:26.806Z,61.27
2019-05-11T05:42:56.480Z,60.71
2019-05-11T05:45:25.214Z,61.43
2019-05-11T05:47:54.126Z,59.60
2019-05-11T05:50:22.835Z,59.02
2019-05-11T05:52:51.554Z,56.89
2019-05-11T05:55:20.439Z,56.91
2019-05-11T05:57:49.162Z,58.84
2019-05-11T06:00:18.087Z,59.00
2019-05-11T06:02:48.334Z,58.72
2019-05-11T06:05:17.063Z,58.53
2019-05-11T06:07:45.763Z,58.90
2019-05-11T06:10:14.938Z,58.03
2019-05-11T06:12:43.662Z,58.41
2019-05-11T06:15:12.591Z,57.24
2019-05-11T06:17:41.349Z,56.62
2019-05-11T06:20:10.546Z,57.99
2019-05-11T06:22:39.248Z,58.33
2019-05-11T06:25:08.330Z,58.35
2019-05-11T06:27:37.051Z,57.03
2019-05-11T06:30:08.906Z,55.38
2019-05-11T06:32:37.776Z,54.36
2019-05-11T06:35:08.312Z,52.89
2019-05-11T06:37:37.045Z,51.07
2019-05-11T06:40:09.108Z,50.19
2019-05-11T06:42:37.842Z,49.62
2019-05-11T06:45:10.122Z,51.13
2019-05-11T06:47:38.885Z,49.14
2019-05-11T06:50:08.020Z,49.48
2019-05-11T06:52:36.742Z,48.43
2019-05-11T06:55:09.532Z,49.34
2019-05-11T06:57:38.317Z,47.88
2019-05-11T07:00:07.471Z,46.46
2019-05-11T07:02:36.458Z,48.24
2019-05-11T07:05:06.989Z,47.41
2019-05-11T07:07:47.170Z,47.21
2019-05-11T07:10:07.136Z,46.14
2019-05-11T07:12:35.866Z,47.26
2019-05-11T07:15:06.400Z,43.99
2019-05-11T07:17:35.242Z,43.24
2019-05-11T07:20:05.262Z,44.81
2019-05-11T07:22:33.982Z,43.69
2019-05-11T07:25:02.742Z,43.53
2019-05-11T07:27:31.455Z,44.49
2019-05-11T07:30:00.176Z,43.17
2019-05-11T07:32:29.455Z,43.53
2019-05-11T07:34:58.270Z,42.31
2019-05-11T07:37:27.965Z,42.82
2019-05-11T07:39:58.054Z,41.22
2019-05-11T07:42:28.561Z,42.00
2019-05-11T07:44:58.214Z,40.34
2019-05-11T07:47:27.888Z,39.58
2019-05-11T07:49:58.069Z,40.87
2019-05-11T07:52:28.731Z,41.12
2019-05-11T07:54:58.101Z,42.76
2019-05-11T07:57:28.441Z,42.79
2019-05-11T07:59:58.837Z,42.93
2019-05-11T08:02:29.266Z,42.64
2019-05-11T08:04:58.765Z,43.61
2019-05-11T08:07:28.491Z,40.69
2019-05-11T08:09:58.709Z,41.25
2019-05-11T08:12:28.451Z,42.12
2019-05-11T08:15:05.682Z,42.08
2019-05-11T08:17:28.638Z,41.95
2019-05-11T08:19:58.143Z,42.72
2019-05-11T08:22:28.413Z,42.98
2019-05-11T08:24:58.602Z,43.22
2019-05-11T08:27:28.595Z,42.80
2019-05-11T08:29:58.063Z,43.08
2019-05-11T08:32:28.671Z,41.29
2019-05-11T08:34:58.097Z,40.65
2019-05-11T08:37:28.363Z,41.53
2019-05-11T08:39:58.549Z,41.81
2019-05-11T08:42:28.953Z,43.18
2019-05-11T08:45:14.798Z,42.98
2019-05-11T08:47:28.493Z,41.68
2019-05-11T08:53:09.196Z,40.38
2019-05-11T08:55:38.383Z,42.42
2019-05-11T08:58:07.903Z,41.63
2019-05-11T09:00:38.911Z,42.85
2019-05-11T09:03:08.541Z,41.77
2019-05-11T09:05:38.486Z,40.56
2019-05-11T09:08:08.218Z,38.93
2019-05-11T09:10:39.694Z,39.56
2019-05-11T09:13:08.122Z,37.86
2019-05-11T09:15:40.496Z,35.24
2019-05-11T09:18:08.413Z,35.91
2019-05-11T09:20:37.917Z,35.89
2019-05-11T09:23:08.168Z,35.60
2019-05-11T09:25:38.516Z,36.03
2019-05-11T09:28:08.586Z,34.12
2019-05-11T09:30:37.862Z,35.22
2019-05-11T09:33:08.570Z,36.59
2019-05-11T09:35:49.639Z,35.57
2019-05-11T09:38:08.131Z,34.59
2019-05-11T09:40:38.568Z,32.33
2019-05-11T09:43:08.559Z,31.76
2019-05-11T09:45:47.495Z,32.86
2019-05-11T09:48:08.743Z,34.60
2019-05-11T09:50:38.842Z,35.85
2019-05-11T09:53:08.482Z,35.95
2019-05-11T09:55:38.858Z,35.52
2019-05-11T09:58:08.495Z,34.46
2019-05-11T10:00:38.823Z,35.12
2019-05-11T10:03:08.346Z,31.59
2019-05-11T10:05:38.245Z,31.14
2019-05-11T10:08:07.965Z,32.78
2019-05-11T10:10:38.294Z,33.51
2019-05-11T10:13:08.070Z,34.50
2019-05-11T10:15:38.556Z,34.14
2019-05-11T10:18:08.226Z,34.59
2019-05-11T10:20:39.258Z,35.80
2019-05-11T10:23:08.382Z,32.86
2019-05-11T10:25:39.066Z,33.81
2019-05-11T10:28:08.690Z,31.38
2019-05-11T10:30:38.612Z,32.06
2019-05-11T10:33:08.302Z,32.61
2019-05-11T10:35:37.837Z,31.22
2019-05-11T10:38:09.023Z,31.82
2019-05-11T10:40:38.779Z,30.11
2019-05-11T10:43:08.016Z,29.97
2019-05-11T10:45:38.419Z,30.08
2019-05-11T10:48:08.858Z,29.52
2019-05-11T10:50:38.216Z,31.64
2019-05-11T10:53:08.006Z,31.99
2019-05-11T10:55:38.648Z,31.47
2019-05-11T10:58:08.600Z,31.56
2019-05-11T11:00:38.878Z,31.98
2019-05-11T11:03:08.541Z,32.47
2019-05-11T11:05:38.426Z,29.65
2019-05-11T11:08:08.253Z,29.55
2019-05-11T11:10:37.894Z,30.33
2019-05-11T11:13:08.332Z,30.48
2019-05-11T11:15:38.076Z,31.54
2019-05-11T11:18:08.620Z,32.72
2019-05-11T11:20:38.398Z,31.84
2019-05-11T11:23:08.806Z,31.75
2019-05-11T11:25:37.737Z,32.36
2019-05-11T11:28:08.451Z,30.29
2019-05-11T11:30:37.842Z,30.29
2019-05-11T11:33:08.020Z,30.71
2019-05-11T11:35:38.486Z,29.97
2019-05-11T11:38:08.673Z,30.84
2019-05-11T11:40:38.676Z,29.46
2019-05-11T11:43:08.625Z,30.76
2019-05-11T11:45:40.816Z,29.88
2019-05-11T11:48:09.544Z,30.10
2019-05-11T11:50:38.565Z,29.69
2019-05-11T11:53:08.429Z,30.21
2019-05-11T11:55:39.008Z,30.84
2019-05-11T11:58:08.397Z,29.19
2019-05-11T12:00:39.179Z,29.19
2019-05-11T12:03:08.119Z,30.10
2019-05-11T12:05:38.645Z,30.12
2019-05-11T12:08:08.348Z,29.78
2019-05-11T12:10:37.972Z,30.95
2019-05-11T12:13:08.623Z,32.26
2019-05-11T12:15:38.760Z,32.65
2019-05-11T12:18:08.224Z,30.03
2019-05-11T12:20:38.930Z,30.07
2019-05-11T12:23:08.735Z,28.69
2019-05-11T12:25:40.496Z,28.11
2019-05-11T12:28:08.232Z,30.25
2019-05-11T12:30:39.223Z,28.06
2019-05-11T12:33:08.346Z,29.97
2019-05-11T12:35:37.756Z,27.83
2019-05-11T12:38:07.760Z,28.83
2019-05-11T12:40:38.703Z,29.44
2019-05-11T12:43:08.161Z,29.55
2019-05-11T12:45:37.655Z,28.02
2019-05-11T12:48:08.832Z,28.97
2019-05-11T12:50:37.883Z,28.11
2019-05-11T12:53:08.018Z,28.75
2019-05-11T12:55:37.995Z,28.07
2019-05-11T12:58:08.613Z,28.10
2019-05-11T13:00:39.137Z,27.16
2019-05-11T13:03:08.227Z,26.51
2019-05-11T13:05:37.834Z,27.30
2019-05-11T13:08:08.054Z,26.73
2019-05-11T13:10:37.629Z,25.49
2019-05-11T13:13:08.686Z,25.37
2019-05-11T13:15:38.749Z,28.34
2019-05-11T13:18:08.395Z,23.79
2019-05-11T13:20:37.828Z,26.59
2019-05-11T13:23:07.954Z,25.80
2019-05-11T13:25:38.765Z,23.64
2019-05-11T13:28:08.587Z,23.58
2019-05-11T13:30:38.181Z,23.72
2019-05-11T13:33:08.532Z,24.65
2019-05-11T13:35:37.747Z,25.65
2019-05-11T13:38:08.759Z,25.51
2019-05-11T13:40:38.205Z,23.98
2019-05-11T13:43:08.343Z,23.77
2019-05-11T13:45:38.767Z,23.50
2019-05-11T13:48:08.417Z,24.47
2019-05-11T13:50:38.680Z,23.91
2019-05-11T13:53:07.871Z,23.95
2019-05-11T13:55:38.552Z,23.05
2019-05-11T13:58:08.292Z,21.88
2019-05-11T14:00:38.040Z,22.90
2019-05-11T14:03:08.322Z,23.43
2019-05-11T14:05:37.833Z,22.76
2019-05-11T14:08:08.189Z,23.55
2019-05-11T14:10:38.361Z,23.79
2019-05-11T14:13:08.828Z,22.32
2019-05-11T14:15:37.966Z,22.17
2019-05-11T14:18:09.381Z,22.46
2019-05-11T14:20:37.884Z,22.61
2019-05-11T14:23:07.711Z,22.25
2019-05-11T14:25:39.638Z,23.75
2019-05-11T14:28:09.026Z,22.62
2019-05-11T14:30:38.535Z,22.99
2019-05-11T14:33:08.769Z,21.32
2019-05-11T14:35:38.443Z,22.71
2019-05-11T14:38:08.099Z,22.45
2019-05-11T14:40:38.717Z,23.37
2019-05-11T14:43:08.378Z,21.63
2019-05-11T14:45:38.108Z,22.41
2019-05-11T14:48:22.192Z,21.64
2019-05-11T14:50:38.579Z,23.75
2019-05-11T14:53:08.602Z,21.23
2019-05-11T14:55:38.065Z,21.58
2019-05-11T14:58:08.278Z,20.95
2019-05-11T15:00:39.182Z,22.17
2019-05-11T15:03:08.020Z,21.86
2019-05-11T15:05:37.904Z,23.17
2019-05-11T15:08:08.727Z,23.02
2019-05-11T15:10:38.289Z,21.05
2019-05-11T15:13:08.024Z,22.36
2019-05-11T15:15:39.262Z,22.34
2019-05-11T15:18:08.480Z,20.65
2019-05-11T15:20:38.762Z,23.37
2019-05-11T15:23:08.892Z,24.61
2019-05-11T15:25:38.351Z,22.82
2019-05-11T15:28:08.871Z,22.80
2019-05-11T15:30:38.139Z,23.42
2019-05-11T15:33:07.785Z,24.55
2019-05-11T15:35:37.745Z,22.70
2019-05-11T15:38:08.771Z,22.51
2019-05-11T15:40:38.282Z,23.11
2019-05-11T15:43:08.704Z,22.92
2019-05-11T15:45:38.141Z,22.61
2019-05-11T15:48:08.417Z,24.50
2019-05-11T15:50:39.735Z,26.12
2019-05-11T15:53:09.675Z,26.85
2019-05-11T15:55:42.129Z,28.54
2019-05-11T15:58:08.832Z,27.94
2019-05-11T16:00:39.975Z,30.26
2019-05-11T16:03:08.393Z,28.88
2019-05-11T16:05:37.132Z,26.16
2019-05-11T16:08:08.407Z,28.31
2019-05-11T16:10:38.462Z,29.13
2019-05-11T16:13:08.950Z,30.56
2019-05-11T16:15:38.365Z,32.12
2019-05-11T16:18:08.324Z,31.72
2019-05-11T16:20:37.285Z,31.83
2019-05-11T16:23:06.113Z,32.50
2019-05-11T16:25:38.198Z,32.21
2019-05-11T16:28:07.867Z,31.28
2019-05-11T16:30:37.873Z,31.95
2019-05-11T16:33:08.675Z,31.90
2019-05-11T16:35:38.304Z,32.54
2019-05-11T16:38:08.179Z,33.34
2019-05-11T16:40:38.684Z,34.01
2019-05-11T16:43:08.572Z,35.17
2019-05-11T16:45:37.788Z,35.39
2019-05-11T16:48:07.988Z,35.68
2019-05-11T16:50:38.359Z,36.88
2019-05-11T16:53:07.353Z,37.01
2019-05-11T16:55:37.694Z,38.27
2019-05-11T16:58:08.360Z,38.88
2019-05-11T17:00:39.349Z,39.22
2019-05-11T17:03:07.803Z,39.58
2019-05-11T17:05:38.245Z,39.59
2019-05-11T17:08:08.087Z,39.86
2019-05-11T17:10:36.973Z,39.82
2019-05-11T17:13:05.699Z,40.52
2019-05-11T17:15:34.487Z,41.82
2019-05-11T17:18:04.802Z,42.20
2019-05-11T17:20:34.431Z,42.83
2019-05-11T17:23:03.333Z,43.11
2019-05-11T17:25:32.081Z,45.19
2019-05-11T17:28:00.844Z,45.88
2019-05-11T17:30:29.736Z,45.97
2019-05-11T17:32:59.359Z,44.69
2019-05-11T17:35:28.275Z,47.08
2019-05-11T17:37:57.178Z,47.69
2019-05-11T17:40:28.322Z,47.88
2019-05-11T17:42:58.509Z,48.40
2019-05-11T17:45:26.900Z,47.56
2019-05-11T17:47:55.656Z,50.44
2019-05-11T17:50:24.380Z,50.61
2019-05-11T17:52:54.707Z,52.55
2019-05-11T17:55:23.422Z,50.38
2019-05-11T17:57:54.035Z,48.24
2019-05-11T18:00:22.997Z,48.52
2019-05-11T18:02:51.725Z,49.27
2019-05-11T18:05:20.455Z,50.08
2019-05-11T18:07:49.337Z,51.05
2019-05-11T18:10:18.449Z,51.62
2019-05-11T18:12:48.589Z,52.84
2019-05-11T18:15:18.814Z,53.25
2019-05-11T18:17:48.390Z,53.58
2019-05-11T18:20:21.393Z,53.99
2019-05-11T18:22:49.273Z,54.81
2019-05-11T18:25:18.559Z,55.45
2019-05-11T18:27:48.272Z,55.69
2019-05-11T18:30:17.513Z,54.90
2019-05-11T18:32:48.791Z,56.92
2019-05-11T18:35:19.066Z,57.29
2019-05-11T18:37:47.781Z,57.66
2019-05-11T18:40:18.624Z,58.51
2019-05-11T18:42:48.749Z,59.02
2019-05-11T18:45:18.886Z,59.21
2019-05-11T18:47:49.014Z,58.30
2019-05-11T18:50:29.812Z,57.75
2019-05-11T18:52:49.187Z,56.96
2019-05-11T18:55:18.941Z,57.07
2019-05-11T18:57:48.952Z,57.58
2019-05-11T19:00:19.755Z,57.67
2019-05-11T19:02:49.377Z,57.87
2019-05-11T19:05:18.702Z,57.52
2019-05-11T19:07:48.367Z,58.61
2019-05-11T19:10:17.435Z,59.99
2019-05-11T19:12:48.791Z,60.36
2019-05-11T19:15:18.760Z,60.94
2019-05-11T19:17:49.117Z,61.93
2019-05-11T19:20:19.331Z,61.94
2019-05-11T19:22:48.221Z,62.06
2019-05-11T19:25:18.209Z,62.47
2019-05-11T19:27:50.313Z,62.70
2019-05-11T19:30:18.557Z,62.78
2019-05-11T19:32:48.753Z,62.65
2019-05-11T19:35:20.884Z,63.15
2019-05-11T19:37:48.675Z,62.81
2019-05-11T19:40:17.670Z,63.13
2019-05-11T19:42:59.323Z,64.29
2019-05-11T19:45:29.461Z,63.93
2019-05-11T19:47:58.540Z,66.00
2019-05-11T19:50:27.518Z,66.94
2019-05-11T19:52:58.014Z,67.70
2019-05-11T19:55:28.505Z,70.17
2019-05-11T19:57:57.410Z,70.99
2019-05-11T20:00:26.131Z,71.67
2019-05-11T20:02:54.859Z,72.21
2019-05-11T20:05:23.720Z,72.59
2019-05-11T20:07:52.447Z,72.96
2019-05-11T20:10:21.182Z,73.70
2019-05-11T20:12:50.031Z,74.37
2019-05-11T20:15:19.324Z,75.26
2019-05-11T20:17:48.827Z,76.35
2019-05-11T20:20:18.720Z,76.54
2019-05-11T20:22:48.405Z,76.82
2019-05-11T20:25:18.505Z,76.88
2019-05-11T20:27:48.851Z,77.65
2019-05-11T20:30:19.060Z,78.07
2019-05-11T20:32:49.625Z,78.28
2019-05-11T20:35:20.222Z,78.09
2019-05-11T20:37:48.940Z,77.15
2019-05-11T20:40:18.354Z,76.78
2019-05-11T20:42:48.513Z,75.98
2019-05-11T20:45:18.727Z,75.36
2019-05-11T20:47:50.267Z,74.91
2019-05-11T20:50:19.148Z,75.04
2019-05-11T20:52:48.571Z,74.52
2019-05-11T20:55:18.222Z,74.57
2019-05-11T20:57:48.413Z,74.91
2019-05-11T21:00:18.661Z,74.77
2019-05-11T21:02:48.710Z,74.82
2019-05-11T21:05:18.383Z,75.23
2019-05-11T21:07:47.283Z,75.45
2019-05-11T21:10:16.209Z,75.97
2019-05-11T21:12:45.062Z,76.01
2019-05-11T21:15:13.973Z,75.93
2019-05-11T21:17:42.699Z,75.69
2019-05-11T21:20:11.798Z,75.87
2019-05-11T21:22:40.914Z,75.66
2019-05-11T21:25:10.811Z,75.57
2019-05-11T21:27:39.670Z,76.09
2019-05-11T21:30:10.483Z,77.01
2019-05-11T21:32:40.088Z,77.65
2019-05-11T21:35:09.543Z,78.47
2019-05-11T21:37:39.002Z,79.12
2019-05-11T21:40:08.989Z,79.71
2019-05-11T21:42:38.990Z,79.95
2019-05-11T21:45:09.744Z,79.90
2019-05-11T21:47:39.500Z,79.52
2019-05-11T21:50:09.851Z,79.21
2019-05-11T21:52:39.060Z,78.98
2019-05-11T21:55:09.821Z,78.50
2019-05-11T21:57:38.871Z,78.60
2019-05-11T22:00:10.513Z,78.89
2019-05-11T22:02:39.255Z,79.44
2019-05-11T22:05:09.372Z,79.87
2019-05-11T22:07:41.625Z,80.10
2019-05-11T22:10:09.847Z,79.82
2019-05-11T22:12:39.416Z,79.02
2019-05-11T22:15:09.834Z,78.27
2019-05-11T22:17:39.749Z,78.07
2019-05-11T22:20:10.080Z,77.59
2019-05-11T22:22:39.376Z,77.29
2019-05-11T22:25:09.499Z,77.29
2019-05-11T22:27:39.009Z,77.16
2019-05-11T22:30:08.872Z,77.23
2019-05-11T22:32:38.548Z,76.91
2019-05-11T22:35:08.781Z,77.41
2019-05-11T22:37:38.625Z,78.00
2019-05-11T22:40:08.835Z,78.49
2019-05-11T22:42:37.851Z,78.46
2019-05-11T22:45:10.788Z,78.16
2019-05-11T22:47:39.846Z,78.05
2019-05-11T22:50:09.599Z,78.09
2019-05-11T22:52:40.254Z,78.28
2019-05-11T22:55:11.958Z,78.36
2019-05-11T22:57:39.770Z,78.62
2019-05-11T23:00:10.455Z,78.92
2019-05-11T23:02:39.172Z,79.16
2019-05-11T23:05:08.821Z,80.22
2019-05-11T23:07:41.332Z,80.20
2019-05-11T23:10:10.019Z,80.17
2019-05-11T23:12:39.001Z,80.08
2019-05-11T23:15:14.889Z,79.75
2019-05-11T23:17:43.763Z,79.15
2019-05-11T23:20:13.686Z,80.58
2019-05-11T23:22:57.919Z,82.10
2019-05-11T23:25:19.786Z,83.18
2019-05-11T23:27:49.096Z,83.82
2019-05-11T23:30:19.743Z,84.43
2019-05-11T23:32:49.241Z,86.40
2019-05-11T23:35:19.083Z,86.76
2019-05-11T23:37:49.413Z,86.68
2019-05-11T23:40:21.557Z,87.45
2019-05-11T23:42:50.386Z,89.01
2019-05-11T23:45:19.531Z,90.41
2019-05-11T23:47:49.029Z,90.01
2019-05-11T23:50:19.157Z,89.58
2019-05-11T23:52:53.292Z,89.49
2019-05-11T23:55:19.539Z,90.00
2019-05-11T23:57:49.062Z,90.52
